sensor_id;sensor_type;location;lat;lon;timestamp;temperature;humidity
20773;DHT22;10546;50.674;4.616;2023-10-19T05:41:56;15.90;99.90
20773;DHT22;10546;50.674;4.616;2023-10-19T05:44:23;15.90;99.90
20773;DHT22;10546;50.674;4.616;2023-10-19T05:46:50;15.90;99.90
20773;DHT22;10546;50.674;4.616;2023-10-19T05:49:16;15.90;99.90
20773;DHT22;10546;50.674;4.616;2023-10-19T05:51:43;15.90;99.90
20773;DHT22;10546;50.674;4.616;2023-10-19T05:54:10;15.90;99.90
20773;DHT22;10546;50.674;4.616;2023-10-19T05:56:37;15.90;99.90
20773;DHT22;10546;50.674;4.616;2023-10-19T05:59:03;15.80;99.90
20773;DHT22;10546;50.674;4.616;2023-10-19T06:01:30;15.80;99.90
20773;DHT22;10546;50.674;4.616;2023-10-19T06:03:55;15.80;99.90
20773;DHT22;10546;50.674;4.616;2023-10-19T06:06:22;15.90;99.90
20773;DHT22;10546;50.674;4.616;2023-10-19T06:08:48;15.80;99.90
20773;DHT22;10546;50.674;4.616;2023-10-19T06:11:15;15.80;99.90
20773;DHT22;10546;50.674;4.616;2023-10-19T06:13:41;15.80;99.90
20773;DHT22;10546;50.674;4.616;2023-10-19T06:16:06;15.90;99.90
20773;DHT22;10546;50.674;4.616;2023-10-19T06:18:32;15.90;99.90
20773;DHT22;10546;50.674;4.616;2023-10-19T06:20:58;15.90;99.90
20773;DHT22;10546;50.674;4.616;2023-10-19T06:23:24;16.00;99.90
20773;DHT22;10546;50.674;4.616;2023-10-19T06:25:50;16.00;99.90
20773;DHT22;10546;50.674;4.616;2023-10-19T06:28:17;15.90;99.90
20773;DHT22;10546;50.674;4.616;2023-10-19T06:30:42;15.90;99.90
20773;DHT22;10546;50.674;4.616;2023-10-19T06:33:09;15.80;99.90
20773;DHT22;10546;50.674;4.616;2023-10-19T06:35:34;15.80;99.90
20773;DHT22;10546;50.674;4.616;2023-10-19T06:38:02;15.80;99.90
20773;DHT22;10546;50.674;4.616;2023-10-19T06:40:34;15.80;99.90
20773;DHT22;10546;50.674;4.616;2023-10-19T06:43:04;15.90;99.90
20773;DHT22;10546;50.674;4.616;2023-10-19T06:45:31;15.80;99.90
20773;DHT22;10546;50.674;4.616;2023-10-19T06:47:57;15.70;99.90
20773;DHT22;10546;50.674;4.616;2023-10-19T06:50:25;15.70;99.90
20773;DHT22;10546;50.674;4.616;2023-10-19T06:52:51;15.70;99.90
20773;DHT22;10546;50.674;4.616;2023-10-19T06:55:18;15.70;99.90
20773;DHT22;10546;50.674;4.616;2023-10-19T06:57:49;15.80;99.90
20773;DHT22;10546;50.674;4.616;2023-10-19T07:00:19;15.70;99.90
20773;DHT22;10546;50.674;4.616;2023-10-19T07:02:49;15.70;99.90
20773;DHT22;10546;50.674;4.616;2023-10-19T07:05:16;15.80;99.90
20773;DHT22;10546;50.674;4.616;2023-10-19T07:07:50;15.80;99.90
20773;DHT22;10546;50.674;4.616;2023-10-19T07:10:18;15.80;99.90
20773;DHT22;10546;50.674;4.616;2023-10-19T07:12:50;15.80;99.90
20773;DHT22;10546;50.674;4.616;2023-10-19T07:15:16;15.80;99.90
20773;DHT22;10546;50.674;4.616;2023-10-19T07:17:46;15.80;99.90
20773;DHT22;10546;50.674;4.616;2023-10-19T07:20:15;16.10;99.90
20773;DHT22;10546;50.674;4.616;2023-10-19T07:22:57;16.20;99.90
20773;DHT22;10546;50.674;4.616;2023-10-19T07:25:29;16.30;99.90
20773;DHT22;10546;50.674;4.616;2023-10-19T07:27:57;16.20;99.90
20773;DHT22;10546;50.674;4.616;2023-10-19T07:30:25;16.20;99.90
20773;DHT22;10546;50.674;4.616;2023-10-19T07:32:54;16.20;99.90
20773;DHT22;10546;50.674;4.616;2023-10-19T07:35:24;16.30;99.90
20773;DHT22;10546;50.674;4.616;2023-10-19T07:37:54;16.30;99.90
20773;DHT22;10546;50.674;4.616;2023-10-19T07:40:24;16.30;99.90
20773;DHT22;10546;50.674;4.616;2023-10-19T07:42:50;16.30;99.90
20773;DHT22;10546;50.674;4.616;2023-10-19T07:45:18;16.30;99.90
20773;DHT22;10546;50.674;4.616;2023-10-19T07:47:44;16.30;99.90
20773;DHT22;10546;50.674;4.616;2023-10-19T07:50:14;16.40;99.90
20773;DHT22;10546;50.674;4.616;2023-10-19T07:52:47;16.40;99.90
20773;DHT22;10546;50.674;4.616;2023-10-19T07:55:14;16.40;99.90
20773;DHT22;10546;50.674;4.616;2023-10-19T07:57:41;16.50;99.90
20773;DHT22;10546;50.674;4.616;2023-10-19T08:00:07;16.50;99.90
20773;DHT22;10546;50.674;4.616;2023-10-19T08:02:39;16.40;99.90
20773;DHT22;10546;50.674;4.616;2023-10-19T08:05:07;16.50;99.90
20773;DHT22;10546;50.674;4.616;2023-10-19T08:07:33;16.50;99.90
20773;DHT22;10546;50.674;4.616;2023-10-19T08:10:08;16.50;99.90
20773;DHT22;10546;50.674;4.616;2023-10-19T08:12:36;16.50;99.90
20773;DHT22;10546;50.674;4.616;2023-10-19T08:15:03;16.60;99.90
20773;DHT22;10546;50.674;4.616;2023-10-19T08:17:29;16.60;99.90
20773;DHT22;10546;50.674;4.616;2023-10-19T08:19:59;16.60;99.90
20773;DHT22;10546;50.674;4.616;2023-10-19T08:22:29;16.70;99.90
20773;DHT22;10546;50.674;4.616;2023-10-19T08:24:55;16.70;99.90
20773;DHT22;10546;50.674;4.616;2023-10-19T08:27:21;16.80;99.90
20773;DHT22;10546;50.674;4.616;2023-10-19T08:29:49;16.80;99.90
20773;DHT22;10546;50.674;4.616;2023-10-19T08:32:15;16.90;99.90
20773;DHT22;10546;50.674;4.616;2023-10-19T08:34:41;17.00;99.90
20773;DHT22;10546;50.674;4.616;2023-10-19T08:37:07;17.10;99.90
20773;DHT22;10546;50.674;4.616;2023-10-19T08:39:33;17.20;99.90
20773;DHT22;10546;50.674;4.616;2023-10-19T08:42:03;17.20;99.90
20773;DHT22;10546;50.674;4.616;2023-10-19T08:44:29;17.30;99.90
20773;DHT22;10546;50.674;4.616;2023-10-19T08:46:58;17.30;99.90
20773;DHT22;10546;50.674;4.616;2023-10-19T08:49:39;17.30;99.90
20773;DHT22;10546;50.674;4.616;2023-10-19T08:52:12;17.40;99.90
20773;DHT22;10546;50.674;4.616;2023-10-19T08:54:40;17.50;99.90
20773;DHT22;10546;50.674;4.616;2023-10-19T08:57:09;17.50;99.90
20773;DHT22;10546;50.674;4.616;2023-10-19T08:59:41;17.50;99.90
20773;DHT22;10546;50.674;4.616;2023-10-19T09:02:12;17.50;99.90
20773;DHT22;10546;50.674;4.616;2023-10-19T09:04:48;17.50;99.90
20773;DHT22;10546;50.674;4.616;2023-10-19T09:07:16;17.50;99.90
20773;DHT22;10546;50.674;4.616;2023-10-19T09:09:45;17.50;99.90
20773;DHT22;10546;50.674;4.616;2023-10-19T09:12:16;17.50;99.90
20773;DHT22;10546;50.674;4.616;2023-10-19T09:14:43;17.40;99.90
20773;DHT22;10546;50.674;4.616;2023-10-19T09:17:14;17.40;99.90
20773;DHT22;10546;50.674;4.616;2023-10-19T09:19:41;17.40;99.90
20773;DHT22;10546;50.674;4.616;2023-10-19T09:22:13;17.40;99.90
20773;DHT22;10546;50.674;4.616;2023-10-19T09:25:05;17.40;99.90
20773;DHT22;10546;50.674;4.616;2023-10-19T09:27:34;17.30;99.90
20773;DHT22;10546;50.674;4.616;2023-10-19T09:30:02;17.40;99.90
20773;DHT22;10546;50.674;4.616;2023-10-19T09:32:29;17.50;99.90
20773;DHT22;10546;50.674;4.616;2023-10-19T09:34:58;17.50;99.90
20773;DHT22;10546;50.674;4.616;2023-10-19T09:37:25;17.60;99.90
20773;DHT22;10546;50.674;4.616;2023-10-19T09:39:52;17.80;99.90
20773;DHT22;10546;50.674;4.616;2023-10-19T09:42:43;17.90;99.90
20773;DHT22;10546;50.674;4.616;2023-10-19T09:45:18;18.00;99.90
20773;DHT22;10546;50.674;4.616;2023-10-19T09:47:55;18.10;99.90
20773;DHT22;10546;50.674;4.616;2023-10-19T09:50:32;18.10;99.90
20773;DHT22;10546;50.674;4.616;2023-10-19T09:53:02;18.20;99.90
20773;DHT22;10546;50.674;4.616;2023-10-19T09:55:39;18.20;99.90
20773;DHT22;10546;50.674;4.616;2023-10-19T09:58:17;18.20;99.90
20773;DHT22;10546;50.674;4.616;2023-10-19T10:00:47;18.10;99.90
20773;DHT22;10546;50.674;4.616;2023-10-19T10:03:45;18.20;99.90
20773;DHT22;10546;50.674;4.616;2023-10-19T10:06:16;18.30;99.90
20773;DHT22;10546;50.674;4.616;2023-10-19T10:08:46;18.30;99.90
20773;DHT22;10546;50.674;4.616;2023-10-19T10:11:35;18.30;99.90
20773;DHT22;10546;50.674;4.616;2023-10-19T10:14:22;18.60;99.90
20773;DHT22;10546;50.674;4.616;2023-10-19T10:17:02;18.70;99.90
20773;DHT22;10546;50.674;4.616;2023-10-19T10:19:30;18.80;99.90
20773;DHT22;10546;50.674;4.616;2023-10-19T10:22:09;18.80;99.90
20773;DHT22;10546;50.674;4.616;2023-10-19T10:24:43;18.80;99.90
20773;DHT22;10546;50.674;4.616;2023-10-19T10:27:09;18.70;99.90
20773;DHT22;10546;50.674;4.616;2023-10-19T10:29:54;18.70;99.90
20773;DHT22;10546;50.674;4.616;2023-10-19T10:35:09;18.60;99.90
20773;DHT22;10546;50.674;4.616;2023-10-19T10:37:38;18.50;99.90
20773;DHT22;10546;50.674;4.616;2023-10-19T10:40:10;18.60;99.90
20773;DHT22;10546;50.674;4.616;2023-10-19T10:42:37;18.50;99.90
20773;DHT22;10546;50.674;4.616;2023-10-19T10:45:18;18.50;99.90
20773;DHT22;10546;50.674;4.616;2023-10-19T10:47:49;18.40;99.90
20773;DHT22;10546;50.674;4.616;2023-10-19T10:50:23;18.50;99.90
20773;DHT22;10546;50.674;4.616;2023-10-19T10:52:52;18.30;99.90
20773;DHT22;10546;50.674;4.616;2023-10-19T10:55:24;18.30;99.90
20773;DHT22;10546;50.674;4.616;2023-10-19T10:57:56;18.30;99.90
20773;DHT22;10546;50.674;4.616;2023-10-19T11:00:22;18.10;99.90
20773;DHT22;10546;50.674;4.616;2023-10-19T11:03:04;18.10;99.90
20773;DHT22;10546;50.674;4.616;2023-10-19T11:05:33;18.10;99.90
20773;DHT22;10546;50.674;4.616;2023-10-19T11:08:14;18.10;99.90
20773;DHT22;10546;50.674;4.616;2023-10-19T11:10:44;18.10;99.90
20773;DHT22;10546;50.674;4.616;2023-10-19T11:13:13;18.20;99.90
20773;DHT22;10546;50.674;4.616;2023-10-19T11:15:47;18.30;99.90
20773;DHT22;10546;50.674;4.616;2023-10-19T11:18:31;18.30;99.90
20773;DHT22;10546;50.674;4.616;2023-10-19T11:21:15;18.50;99.90
20773;DHT22;10546;50.674;4.616;2023-10-19T11:23:47;18.50;99.90
20773;DHT22;10546;50.674;4.616;2023-10-19T11:26:16;18.50;99.90
20773;DHT22;10546;50.674;4.616;2023-10-19T11:28:41;18.60;99.90
20773;DHT22;10546;50.674;4.616;2023-10-19T11:31:21;18.50;99.90
20773;DHT22;10546;50.674;4.616;2023-10-19T11:33:53;18.50;99.90
20773;DHT22;10546;50.674;4.616;2023-10-19T11:36:24;18.40;99.90
20773;DHT22;10546;50.674;4.616;2023-10-19T11:38:56;18.50;99.90
20773;DHT22;10546;50.674;4.616;2023-10-19T11:41:23;18.30;99.90
20773;DHT22;10546;50.674;4.616;2023-10-19T11:44:06;18.30;99.90
20773;DHT22;10546;50.674;4.616;2023-10-19T11:47:11;18.30;99.90
20773;DHT22;10546;50.674;4.616;2023-10-19T11:49:41;18.00;99.90
20773;DHT22;10546;50.674;4.616;2023-10-19T11:52:07;17.90;99.90
20773;DHT22;10546;50.674;4.616;2023-10-19T11:54:34;17.90;99.90
20773;DHT22;10546;50.674;4.616;2023-10-19T11:56:59;17.90;99.90
20773;DHT22;10546;50.674;4.616;2023-10-19T11:59:25;17.80;99.90
20773;DHT22;10546;50.674;4.616;2023-10-19T12:01:52;17.70;99.90
20773;DHT22;10546;50.674;4.616;2023-10-19T12:04:17;17.50;99.90
20773;DHT22;10546;50.674;4.616;2023-10-19T12:06:43;17.50;99.90
20773;DHT22;10546;50.674;4.616;2023-10-19T12:09:11;17.30;99.90
20773;DHT22;10546;50.674;4.616;2023-10-19T12:11:43;17.20;99.90
20773;DHT22;10546;50.674;4.616;2023-10-19T12:14:10;17.10;99.90
20773;DHT22;10546;50.674;4.616;2023-10-19T12:16:40;17.00;99.90
20773;DHT22;10546;50.674;4.616;2023-10-19T12:19:06;17.00;99.90
20773;DHT22;10546;50.674;4.616;2023-10-19T12:21:33;16.90;99.90
20773;DHT22;10546;50.674;4.616;2023-10-19T12:24:00;17.00;99.90
20773;DHT22;10546;50.674;4.616;2023-10-19T12:26:27;17.00;99.90
20773;DHT22;10546;50.674;4.616;2023-10-19T12:28:52;17.00;99.90
20773;DHT22;10546;50.674;4.616;2023-10-19T12:31:18;17.00;99.90
20773;DHT22;10546;50.674;4.616;2023-10-19T12:33:44;17.20;99.90
20773;DHT22;10546;50.674;4.616;2023-10-19T12:36:11;17.40;99.90
20773;DHT22;10546;50.674;4.616;2023-10-19T12:38:55;17.50;99.90
20773;DHT22;10546;50.674;4.616;2023-10-19T12:41:21;17.80;99.90
20773;DHT22;10546;50.674;4.616;2023-10-19T12:43:47;18.00;99.90
20773;DHT22;10546;50.674;4.616;2023-10-19T12:46:16;18.30;99.90
20773;DHT22;10546;50.674;4.616;2023-10-19T12:48:45;18.50;99.90
20773;DHT22;10546;50.674;4.616;2023-10-19T12:51:13;18.70;99.90
20773;DHT22;10546;50.674;4.616;2023-10-19T12:53:40;19.00;99.90
20773;DHT22;10546;50.674;4.616;2023-10-19T12:56:06;19.20;99.90
20773;DHT22;10546;50.674;4.616;2023-10-19T12:58:33;19.20;99.90
20773;DHT22;10546;50.674;4.616;2023-10-19T13:00:59;19.20;99.90
20773;DHT22;10546;50.674;4.616;2023-10-19T13:03:25;19.20;99.90
20773;DHT22;10546;50.674;4.616;2023-10-19T13:05:57;19.20;99.90
20773;DHT22;10546;50.674;4.616;2023-10-19T13:08:23;19.20;99.90
20773;DHT22;10546;50.674;4.616;2023-10-19T13:10:52;19.20;99.90
20773;DHT22;10546;50.674;4.616;2023-10-19T13:13:18;19.20;99.90
20773;DHT22;10546;50.674;4.616;2023-10-19T13:15:48;19.20;99.90
20773;DHT22;10546;50.674;4.616;2023-10-19T13:18:14;19.10;99.90
20773;DHT22;10546;50.674;4.616;2023-10-19T13:20:46;19.10;99.90
20773;DHT22;10546;50.674;4.616;2023-10-19T13:23:14;18.90;99.90
20773;DHT22;10546;50.674;4.616;2023-10-19T13:25:47;18.90;99.90
20773;DHT22;10546;50.674;4.616;2023-10-19T13:28:14;19.00;99.90
20773;DHT22;10546;50.674;4.616;2023-10-19T13:30:46;19.00;99.90
20773;DHT22;10546;50.674;4.616;2023-10-19T13:33:13;19.00;99.90
20773;DHT22;10546;50.674;4.616;2023-10-19T13:35:43;19.00;99.90
20773;DHT22;10546;50.674;4.616;2023-10-19T13:38:10;19.20;99.90
20773;DHT22;10546;50.674;4.616;2023-10-19T13:40:41;19.00;99.90
20773;DHT22;10546;50.674;4.616;2023-10-19T13:43:08;18.90;99.90
20773;DHT22;10546;50.674;4.616;2023-10-19T13:45:39;18.70;99.90
20773;DHT22;10546;50.674;4.616;2023-10-19T13:48:07;18.60;99.90
20773;DHT22;10546;50.674;4.616;2023-10-19T13:50:34;18.70;99.90
20773;DHT22;10546;50.674;4.616;2023-10-19T13:53:01;18.80;99.90
20773;DHT22;10546;50.674;4.616;2023-10-19T13:55:30;19.00;99.90
20773;DHT22;10546;50.674;4.616;2023-10-19T13:57:57;19.20;99.90
20773;DHT22;10546;50.674;4.616;2023-10-19T14:00:23;19.20;99.90
20773;DHT22;10546;50.674;4.616;2023-10-19T14:02:51;19.10;99.90
20773;DHT22;10546;50.674;4.616;2023-10-19T14:05:17;19.10;99.90
20773;DHT22;10546;50.674;4.616;2023-10-19T14:07:44;19.00;99.90
20773;DHT22;10546;50.674;4.616;2023-10-19T14:10:12;19.00;99.90
20773;DHT22;10546;50.674;4.616;2023-10-19T14:12:39;19.00;99.90
20773;DHT22;10546;50.674;4.616;2023-10-19T14:15:12;19.10;99.90
20773;DHT22;10546;50.674;4.616;2023-10-19T14:17:38;19.00;99.90
20773;DHT22;10546;50.674;4.616;2023-10-19T14:20:07;18.90;99.90
20773;DHT22;10546;50.674;4.616;2023-10-19T14:22:44;19.00;99.90
20773;DHT22;10546;50.674;4.616;2023-10-19T14:25:11;18.90;99.90
20773;DHT22;10546;50.674;4.616;2023-10-19T14:27:45;18.80;99.90
20773;DHT22;10546;50.674;4.616;2023-10-19T14:30:12;18.80;99.90
20773;DHT22;10546;50.674;4.616;2023-10-19T14:32:45;18.80;99.90
20773;DHT22;10546;50.674;4.616;2023-10-19T14:35:13;18.90;99.90
20773;DHT22;10546;50.674;4.616;2023-10-19T14:37:41;19.00;99.90
20773;DHT22;10546;50.674;4.616;2023-10-19T14:40:09;19.10;99.90
20773;DHT22;10546;50.674;4.616;2023-10-19T14:42:37;19.00;99.90
20773;DHT22;10546;50.674;4.616;2023-10-19T14:45:09;18.90;99.90
20773;DHT22;10546;50.674;4.616;2023-10-19T14:47:38;18.80;99.90
20773;DHT22;10546;50.674;4.616;2023-10-19T14:50:12;18.70;99.90
20773;DHT22;10546;50.674;4.616;2023-10-19T14:52:41;18.70;99.90
20773;DHT22;10546;50.674;4.616;2023-10-19T14:55:09;18.70;99.90
20773;DHT22;10546;50.674;4.616;2023-10-19T14:57:40;18.70;99.90
20773;DHT22;10546;50.674;4.616;2023-10-19T15:00:07;18.70;99.90
20773;DHT22;10546;50.674;4.616;2023-10-19T15:02:56;18.80;99.90
20773;DHT22;10546;50.674;4.616;2023-10-19T15:05:27;18.80;99.90
20773;DHT22;10546;50.674;4.616;2023-10-19T15:07:53;18.90;99.90
20773;DHT22;10546;50.674;4.616;2023-10-19T15:10:24;18.90;99.90
20773;DHT22;10546;50.674;4.616;2023-10-19T15:12:51;19.00;99.90
20773;DHT22;10546;50.674;4.616;2023-10-19T15:15:17;19.10;99.90
20773;DHT22;10546;50.674;4.616;2023-10-19T15:17:44;19.00;99.90
20773;DHT22;10546;50.674;4.616;2023-10-19T15:20:12;19.00;99.90
20773;DHT22;10546;50.674;4.616;2023-10-19T15:22:38;18.90;99.90
20773;DHT22;10546;50.674;4.616;2023-10-19T15:25:05;18.90;99.90
20773;DHT22;10546;50.674;4.616;2023-10-19T15:27:52;18.80;99.90
20773;DHT22;10546;50.674;4.616;2023-10-19T15:30:18;18.70;99.90
20773;DHT22;10546;50.674;4.616;2023-10-19T15:32:47;18.70;99.90
20773;DHT22;10546;50.674;4.616;2023-10-19T15:35:14;18.60;99.90
20773;DHT22;10546;50.674;4.616;2023-10-19T15:37:42;18.50;99.90
20773;DHT22;10546;50.674;4.616;2023-10-19T15:40:09;18.50;99.90
20773;DHT22;10546;50.674;4.616;2023-10-19T15:42:42;18.40;99.90
20773;DHT22;10546;50.674;4.616;2023-10-19T15:45:12;18.30;99.90
20773;DHT22;10546;50.674;4.616;2023-10-19T15:47:38;18.30;99.90
20773;DHT22;10546;50.674;4.616;2023-10-19T15:50:06;18.40;99.90
20773;DHT22;10546;50.674;4.616;2023-10-19T15:52:34;18.50;99.90
20773;DHT22;10546;50.674;4.616;2023-10-19T15:55:01;18.50;99.90
20773;DHT22;10546;50.674;4.616;2023-10-19T15:57:27;18.60;99.90
20773;DHT22;10546;50.674;4.616;2023-10-19T15:59:56;18.60;99.90
20773;DHT22;10546;50.674;4.616;2023-10-19T16:02:22;18.50;99.90
20773;DHT22;10546;50.674;4.616;2023-10-19T16:04:48;18.50;99.90
20773;DHT22;10546;50.674;4.616;2023-10-19T16:07:15;18.40;99.90
20773;DHT22;10546;50.674;4.616;2023-10-19T16:09:42;18.40;99.90
20773;DHT22;10546;50.674;4.616;2023-10-19T16:12:09;18.40;99.90
20773;DHT22;10546;50.674;4.616;2023-10-19T16:14:38;18.30;99.90
20773;DHT22;10546;50.674;4.616;2023-10-19T16:17:08;18.20;99.90
20773;DHT22;10546;50.674;4.616;2023-10-19T16:19:34;18.30;99.90
20773;DHT22;10546;50.674;4.616;2023-10-19T16:22:00;18.30;99.90
20773;DHT22;10546;50.674;4.616;2023-10-19T16:24:26;18.30;99.90
20773;DHT22;10546;50.674;4.616;2023-10-19T16:26:54;18.20;99.90
20773;DHT22;10546;50.674;4.616;2023-10-19T16:29:22;18.10;99.90
20773;DHT22;10546;50.674;4.616;2023-10-19T16:31:48;18.10;99.90
20773;DHT22;10546;50.674;4.616;2023-10-19T16:34:16;18.00;99.90
20773;DHT22;10546;50.674;4.616;2023-10-19T16:36:43;17.90;99.90
20773;DHT22;10546;50.674;4.616;2023-10-19T16:39:09;17.90;99.90
20773;DHT22;10546;50.674;4.616;2023-10-19T16:41:38;17.90;99.90
20773;DHT22;10546;50.674;4.616;2023-10-19T16:44:05;17.90;99.90
20773;DHT22;10546;50.674;4.616;2023-10-19T16:46:32;17.90;99.90
20773;DHT22;10546;50.674;4.616;2023-10-19T16:48:58;17.80;99.90
20773;DHT22;10546;50.674;4.616;2023-10-19T16:51:29;17.80;99.90
20773;DHT22;10546;50.674;4.616;2023-10-19T16:53:58;17.70;99.90
20773;DHT22;10546;50.674;4.616;2023-10-19T16:56:24;17.60;99.90
20773;DHT22;10546;50.674;4.616;2023-10-19T16:58:51;17.60;99.90
20773;DHT22;10546;50.674;4.616;2023-10-19T17:01:30;17.50;99.90
20773;DHT22;10546;50.674;4.616;2023-10-19T17:04:08;17.60;99.90
20773;DHT22;10546;50.674;4.616;2023-10-19T17:06:35;17.50;99.90
20773;DHT22;10546;50.674;4.616;2023-10-19T17:09:15;17.40;99.90
20773;DHT22;10546;50.674;4.616;2023-10-19T17:11:44;17.40;99.90
20773;DHT22;10546;50.674;4.616;2023-10-19T17:14:11;17.30;99.90
20773;DHT22;10546;50.674;4.616;2023-10-19T17:16:36;17.40;99.90
20773;DHT22;10546;50.674;4.616;2023-10-19T17:19:02;17.30;99.90
20773;DHT22;10546;50.674;4.616;2023-10-19T17:21:29;17.30;99.90
20773;DHT22;10546;50.674;4.616;2023-10-19T17:23:55;17.20;99.90
20773;DHT22;10546;50.674;4.616;2023-10-19T17:26:21;17.20;99.90
20773;DHT22;10546;50.674;4.616;2023-10-19T17:28:46;17.20;99.90
20773;DHT22;10546;50.674;4.616;2023-10-19T17:31:12;17.10;99.90
20773;DHT22;10546;50.674;4.616;2023-10-19T17:33:39;17.10;99.90
20773;DHT22;10546;50.674;4.616;2023-10-19T17:36:04;17.10;99.90
20773;DHT22;10546;50.674;4.616;2023-10-19T17:38:32;17.10;99.90
20773;DHT22;10546;50.674;4.616;2023-10-19T17:40:58;17.10;99.90
20773;DHT22;10546;50.674;4.616;2023-10-19T17:43:24;17.10;99.90
20773;DHT22;10546;50.674;4.616;2023-10-19T17:45:50;17.10;99.90
20773;DHT22;10546;50.674;4.616;2023-10-19T17:48:16;17.10;99.90
20773;DHT22;10546;50.674;4.616;2023-10-19T17:50:42;17.10;99.90
20773;DHT22;10546;50.674;4.616;2023-10-19T17:53:08;17.10;99.90
20773;DHT22;10546;50.674;4.616;2023-10-19T17:55:37;17.10;99.90
20773;DHT22;10546;50.674;4.616;2023-10-19T17:58:03;17.00;99.90
20773;DHT22;10546;50.674;4.616;2023-10-19T18:00:30;17.10;99.90
20773;DHT22;10546;50.674;4.616;2023-10-19T18:02:56;17.10;99.90
20773;DHT22;10546;50.674;4.616;2023-10-19T18:05:25;17.10;99.90
20773;DHT22;10546;50.674;4.616;2023-10-19T18:07:51;17.10;99.90
20773;DHT22;10546;50.674;4.616;2023-10-19T18:10:18;17.10;99.90
20773;DHT22;10546;50.674;4.616;2023-10-19T18:12:44;17.00;99.90
20773;DHT22;10546;50.674;4.616;2023-10-19T18:15:10;17.00;99.90
20773;DHT22;10546;50.674;4.616;2023-10-19T18:17:37;16.80;99.90
20773;DHT22;10546;50.674;4.616;2023-10-19T18:20:05;16.80;99.90
20773;DHT22;10546;50.674;4.616;2023-10-19T18:22:36;16.80;99.90
20773;DHT22;10546;50.674;4.616;2023-10-19T18:25:02;16.60;99.90
20773;DHT22;10546;50.674;4.616;2023-10-19T18:27:29;16.60;99.90
20773;DHT22;10546;50.674;4.616;2023-10-19T18:29:55;16.50;99.90
20773;DHT22;10546;50.674;4.616;2023-10-19T18:32:20;16.60;99.90
20773;DHT22;10546;50.674;4.616;2023-10-19T18:34:46;16.60;99.90
20773;DHT22;10546;50.674;4.616;2023-10-19T18:37:12;16.60;99.90
20773;DHT22;10546;50.674;4.616;2023-10-19T18:39:37;16.70;99.90
20773;DHT22;10546;50.674;4.616;2023-10-19T18:42:03;16.70;99.90
20773;DHT22;10546;50.674;4.616;2023-10-19T18:44:35;16.70;99.90
20773;DHT22;10546;50.674;4.616;2023-10-19T18:47:00;16.70;99.90
20773;DHT22;10546;50.674;4.616;2023-10-19T18:49:26;16.70;99.90
20773;DHT22;10546;50.674;4.616;2023-10-19T18:51:52;16.70;99.90
20773;DHT22;10546;50.674;4.616;2023-10-19T18:54:17;16.70;99.90
20773;DHT22;10546;50.674;4.616;2023-10-19T18:56:43;16.70;99.90
20773;DHT22;10546;50.674;4.616;2023-10-19T18:59:09;16.70;99.90
20773;DHT22;10546;50.674;4.616;2023-10-19T19:01:34;16.70;99.90
20773;DHT22;10546;50.674;4.616;2023-10-19T19:04:00;16.70;99.90
20773;DHT22;10546;50.674;4.616;2023-10-19T19:06:26;16.70;99.90
20773;DHT22;10546;50.674;4.616;2023-10-19T19:08:51;16.70;99.90
20773;DHT22;10546;50.674;4.616;2023-10-19T19:11:18;16.70;99.90
20773;DHT22;10546;50.674;4.616;2023-10-19T19:13:44;16.70;99.90
20773;DHT22;10546;50.674;4.616;2023-10-19T19:16:10;16.60;99.90
20773;DHT22;10546;50.674;4.616;2023-10-19T19:18:37;16.60;99.90
20773;DHT22;10546;50.674;4.616;2023-10-19T19:21:02;16.50;99.90
20773;DHT22;10546;50.674;4.616;2023-10-19T19:23:38;16.60;99.90
20773;DHT22;10546;50.674;4.616;2023-10-19T19:26:08;16.60;99.90
20773;DHT22;10546;50.674;4.616;2023-10-19T19:28:36;16.60;99.90
20773;DHT22;10546;50.674;4.616;2023-10-19T19:31:04;16.50;99.90
20773;DHT22;10546;50.674;4.616;2023-10-19T19:33:30;16.60;99.90
20773;DHT22;10546;50.674;4.616;2023-10-19T19:35:56;16.60;99.90
20773;DHT22;10546;50.674;4.616;2023-10-19T19:38:22;16.60;99.90
20773;DHT22;10546;50.674;4.616;2023-10-19T19:40:49;16.60;99.90
20773;DHT22;10546;50.674;4.616;2023-10-19T19:43:15;16.50;99.90
20773;DHT22;10546;50.674;4.616;2023-10-19T19:45:41;16.60;99.90
20773;DHT22;10546;50.674;4.616;2023-10-19T19:48:10;16.50;99.90
20773;DHT22;10546;50.674;4.616;2023-10-19T19:50:38;16.50;99.90
20773;DHT22;10546;50.674;4.616;2023-10-19T19:53:08;16.60;99.90
20773;DHT22;10546;50.674;4.616;2023-10-19T19:55:36;16.50;99.90
20773;DHT22;10546;50.674;4.616;2023-10-19T19:58:02;16.50;99.90
20773;DHT22;10546;50.674;4.616;2023-10-19T20:00:29;16.60;99.90
20773;DHT22;10546;50.674;4.616;2023-10-19T20:02:56;16.60;99.90
20773;DHT22;10546;50.674;4.616;2023-10-19T20:05:22;16.70;99.90
20773;DHT22;10546;50.674;4.616;2023-10-19T20:07:48;16.70;99.90
20773;DHT22;10546;50.674;4.616;2023-10-19T20:10:14;16.60;99.90
20773;DHT22;10546;50.674;4.616;2023-10-19T20:12:41;16.70;99.90
20773;DHT22;10546;50.674;4.616;2023-10-19T20:15:10;16.60;99.90
20773;DHT22;10546;50.674;4.616;2023-10-19T20:17:38;16.60;99.90
20773;DHT22;10546;50.674;4.616;2023-10-19T20:20:05;16.60;99.90
20773;DHT22;10546;50.674;4.616;2023-10-19T20:22:34;16.60;99.90
20773;DHT22;10546;50.674;4.616;2023-10-19T20:25:00;16.60;99.90
20773;DHT22;10546;50.674;4.616;2023-10-19T20:27:26;16.70;99.90
20773;DHT22;10546;50.674;4.616;2023-10-19T20:29:51;16.70;99.90
20773;DHT22;10546;50.674;4.616;2023-10-19T20:32:19;16.60;99.90
20773;DHT22;10546;50.674;4.616;2023-10-19T20:34:45;16.50;99.90
20773;DHT22;10546;50.674;4.616;2023-10-19T20:37:11;16.50;99.90
20773;DHT22;10546;50.674;4.616;2023-10-19T20:39:36;16.50;99.90
20773;DHT22;10546;50.674;4.616;2023-10-19T20:42:05;16.50;99.90
20773;DHT22;10546;50.674;4.616;2023-10-19T20:44:33;16.50;99.90
20773;DHT22;10546;50.674;4.616;2023-10-19T20:47:08;16.50;99.90
20773;DHT22;10546;50.674;4.616;2023-10-19T20:49:37;16.50;99.90
20773;DHT22;10546;50.674;4.616;2023-10-19T20:52:04;16.50;99.90
20773;DHT22;10546;50.674;4.616;2023-10-19T20:54:30;16.50;99.90
20773;DHT22;10546;50.674;4.616;2023-10-19T20:56:56;16.60;99.90
20773;DHT22;10546;50.674;4.616;2023-10-19T20:59:22;16.50;99.90
20773;DHT22;10546;50.674;4.616;2023-10-19T21:01:49;16.60;99.90
20773;DHT22;10546;50.674;4.616;2023-10-19T21:04:14;16.50;99.90
20773;DHT22;10546;50.674;4.616;2023-10-19T21:06:40;16.50;99.90
20773;DHT22;10546;50.674;4.616;2023-10-19T21:09:06;16.60;99.90
20773;DHT22;10546;50.674;4.616;2023-10-19T21:11:31;16.60;99.90
20773;DHT22;10546;50.674;4.616;2023-10-19T21:13:58;16.60;99.90
20773;DHT22;10546;50.674;4.616;2023-10-19T21:16:24;16.60;99.90
20773;DHT22;10546;50.674;4.616;2023-10-19T21:18:50;16.60;99.90
20773;DHT22;10546;50.674;4.616;2023-10-19T21:21:15;16.60;99.90
20773;DHT22;10546;50.674;4.616;2023-10-19T21:23:41;16.50;99.90